CST,Max TemperatureF,Mean TemperatureF,Min TemperatureF,Max Dew PointF,MeanDew PointF,Min DewpointF,Max Humidity, Mean Humidity, Min Humidity, Max Sea Level PressureIn, Mean Sea Level PressureIn, Min Sea Level PressureIn, Max VisibilityMiles, Mean VisibilityMiles, Min VisibilityMiles, Max Wind SpeedMPH, Mean Wind SpeedMPH, Max Gust SpeedMPH,PrecipitationIn, CloudCover, Events, WindDirDegrees
2014-2-1,19,8,-4,14,7,-8,92,80,67,30.32,30.06,29.89,10,8,2,23,13,27,T,5,Snow,286
2014-2-2,15,1,-13,5,-4,-15,90,76,61,30.38,30.33,30.25,10,10,10,16,8,19,0.00,0,,216
2014-2-3,22,11,-1,10,6,-2,95,76,57,30.38,30.29,30.22,10,10,8,15,8,19,0.00,2,,355
2014-2-4,11,5,-1,7,-1,-8,96,82,68,30.51,30.45,30.30,10,9,4,26,17,33,T,6,Snow,6
2014-2-5,4,-4,-12,-5,-8,-15,86,77,68,30.65,30.56,30.41,10,7,2,28,17,34,0.00,5,Snow,329
2014-2-6,4,-4,-12,-4,-10,-16,86,76,65,30.60,30.50,30.38,10,10,10,22,14,27,0.00,0,,271
2014-2-7,13,2,-10,4,-6,-15,91,79,67,30.38,30.29,30.21,10,10,10,17,11,21,0.00,0,,217
2014-2-8,16,5,-7,10,5,-8,100,87,73,30.27,30.10,30.02,10,6,0,12,7,15,0.01,5,Fog-Snow,189
2014-2-9,4,-8,-20,-4,-10,-21,100,84,68,30.53,30.40,30.28,10,10,7,18,12,22,0.00,1,,309
2014-2-10,1,-9,-20,-7,-15,-22,91,81,71,30.60,30.55,30.51,10,10,10,15,8,17,0.00,0,,305
2014-2-11,15,-3,-22,10,-3,-22,100,87,73,30.55,30.32,30.08,10,9,7,30,17,36,0.00,4,,183
2014-2-12,20,16,12,19,14,9,100,87,73,30.16,30.02,29.81,10,4,0,24,11,28,0.06,8,Fog-Snow,248
2014-2-13,36,21,5,29,15,2,100,84,67,29.81,29.70,29.57,10,8,3,40,20,47,T,2,Snow,280
2014-2-14,10,2,-6,4,1,-6,96,85,73,30.13,29.93,29.72,10,5,0,23,14,27,0.02,5,Fog-Snow,330
2014-2-15,36,15,-7,30,15,-7,96,87,78,30.09,29.88,29.67,10,6,1,28,18,34,0.01,6,Snow,216
2014-2-16,19,14,9,17,11,6,100,90,80,30.26,30.13,29.94,10,7,2,31,16,38,T,5,Snow,73
2014-2-17,36,27,18,29,23,16,100,86,72,29.89,29.78,29.69,10,5,0,35,21,40,0.00,3,Fog-Snow,218
2014-2-18,39,30,20,33,26,17,96,80,64,29.86,29.70,29.60,10,10,10,20,13,24,T,1,,267
2014-2-19,44,33,22,33,29,22,100,79,58,29.89,29.80,29.66,10,10,8,23,13,28,0.00,0,,206
2014-2-20,33,25,17,34,29,15,100,95,89,29.67,29.49,29.38,10,3,0,44,18,51,0.21,8,Fog-Snow,314
2014-2-21,23,15,7,15,10,2,92,77,62,29.91,29.67,29.51,10,6,1,36,19,43,T,3,Snow,288
2014-2-22,19,11,2,11,5,1,91,79,67,30.24,30.09,29.92,10,10,10,20,11,21,0.00,1,,297
2014-2-23,18,8,-3,10,3,-5,95,81,67,30.40,30.35,30.25,10,10,10,18,12,23,0.00,0,,290
2014-2-24,13,7,0,7,3,-3,95,81,67,30.44,30.37,30.27,10,7,1,14,8,17,T,5,Snow,339
2014-2-25,8,-1,-11,2,-4,-12,92,81,69,30.50,30.41,30.29,10,8,1,26,15,31,T,2,Snow,307
2014-2-26,20,5,-11,11,-1,-14,90,79,67,30.46,30.06,29.82,10,8,2,33,20,40,T,1,Snow,284
2014-2-27,1,-5,-11,-9,-14,-20,75,66,57,30.27,30.18,30.07,10,10,9,28,11,34,0.00,0,,34
2014-2-28,18,5,-8,15,6,-13,92,79,65,30.23,29.99,29.84,10,6,0,30,17,37,0.04,7,Fog-Snow,282